Battle Ground, Indiana
Current Conditions -  °F | °C
As of 2:54 AM on Tuesday 21 Oct 2014 (Local Time) from KLAF Reporting Station
Haze Haze  
Wind Chill: 41°   Ceiling: Unl
Heat Index: 44°   Visibility: 6mi
Dew Point: 43°   Wind: 6mph
Humidity: 96%   Direction: 310°NW
Pressure: 29.99"   Gusts: NA
Location:  40.51°N, 86.84°W
Report Text: KLAF 210654Z AUTO 31005KT 6SM BR CLR 07/06 A2999 RMK AO2 SLP154 T00670061 TSNO
Loading
Personal Weather Stations






























Interactive Weather Map
Tropical Storm Tracking
New forecast layout! Learn more

10-Day Weather Forecast

Advertisements
Track Severe Weather on mobile